IK5NLA Vaiano IT current weather conditions

sailwx.info

Wind from 232 at 0 knots

Air temperature 16.7° C
Dewpoint 12.4° C

Last reported at 2016-Sep-30 19:46 UTC.
Time now 2016-Sep-30 20:17 UTC

Location: N 43°58' E 011°06'.
View on Google Maps.

See reports from other nearby stations

  
Tides and Currents Weather Stations Pressure Air Temp Water Temp Dewpoint Dewpoint Depression Visibility Wind Speed Wind Dir Waves Ship Positions
date/time (UTC)wind fromknots sea level pressurealtimeterstation pressurevisibilityair tempwater tempwave heightnotes
2016-Sep-30 19:46 232 0 16.7
2016-Sep-30 19:41 196 1 16.7
2016-Sep-30 19:31 223 0 16.7
2016-Sep-30 19:21 218 0 16.7
2016-Sep-30 19:16 011 1 16.7
2016-Sep-30 19:11 265 2 16.7
2016-Sep-30 18:57 308 0 16.7
2016-Sep-30 18:51 303 16.7
2016-Sep-30 18:36 360 0 16.7
2016-Sep-30 18:11 285 16.7
2016-Sep-30 18:01 272 0 16.7
2016-Sep-30 17:51 286 0 16.7
2016-Sep-30 17:46 292 0 16.7
2016-Sep-30 17:36 300 1 17.2
2016-Sep-30 17:31 290 2 16.7
2016-Sep-30 17:26 293 1 16.7
2016-Sep-30 10:41 184 5 17.8
2016-Sep-30 10:36 256 5 17.8
2016-Sep-30 10:26 227 3 16.7
2016-Sep-30 10:16 256 4 17.2
2016-Sep-30 10:11 238 4 17.2
2016-Sep-30 10:06 217 4 16.7
2016-Sep-30 10:01 245 4 16.7
2016-Sep-30 09:41 222 4 16.7
2016-Sep-30 09:36 234 2 16.7
2016-Sep-30 09:21 230 4 16.7
2016-Sep-30 09:16 263 5 16.7
2016-Sep-30 09:11 207 4 16.7
2016-Sep-30 09:06 250 5 16.7
2016-Sep-30 09:01 241 6 16.7
2016-Sep-30 08:46 258 4 17.2
2016-Sep-30 08:41 243 3 16.7
2016-Sep-30 08:36 257 1 16.1
2016-Sep-30 08:31 263 15.6
2016-Sep-30 08:21 157 0 15.0
2016-Sep-30 08:11 137 0 15.0
2016-Sep-30 08:06 123 1 15.0
2016-Sep-30 08:01 132 1 15.0
2016-Sep-30 07:56 152 1 15.0
2016-Sep-30 07:36 260 4 15.6
2016-Sep-30 07:31 294 2 15.6
2016-Sep-30 07:26 234 1 15.0
2016-Sep-30 07:16 225 2 15.0
2016-Sep-30 07:06 206 0 15.0
2016-Sep-30 07:01 211 0 15.0
2016-Sep-30 06:57 227 0 14.4
2016-Sep-30 06:51 237 0 14.4
2016-Sep-30 06:36 212 14.4
2016-Sep-30 06:26 282 0 14.4
2016-Sep-30 06:16 296 0 14.4
2016-Sep-30 06:11 288 0 14.4
2016-Sep-30 06:01 300 1 14.4
2016-Sep-30 05:56 294 1 14.4
2016-Sep-30 05:51 292 1 14.4
2016-Sep-30 05:46 279 0 13.9
2016-Sep-30 05:41 245 0 13.9
2016-Sep-30 05:36 290 0 13.9
2016-Sep-30 05:31 288 0 13.9
2016-Sep-30 05:26 275 13.9
2016-Sep-30 05:16 271 0 13.9
2016-Sep-30 05:11 279 0 14.4
2016-Sep-30 05:06 267 0 14.4
2016-Sep-30 04:56 269 0 14.4
2016-Sep-30 04:41 254 1 14.4
2016-Sep-30 04:26 239 14.4
2016-Sep-30 04:21 242 14.4
2016-Sep-30 04:16 220 14.4
2016-Sep-30 04:11 211 1 14.4
2016-Sep-30 03:56 226 14.4
2016-Sep-30 03:51 219 14.4
2016-Sep-30 03:46 248 0 14.4
2016-Sep-30 03:36 211 0 14.4
2016-Sep-30 03:31 260 0 14.4
2016-Sep-30 03:21 273 0 13.9
2016-Sep-30 03:11 248 13.9
2016-Sep-30 02:51 229 2 14.4
2016-Sep-30 02:41 258 2 14.4
2016-Sep-30 02:36 286 3 14.4
2016-Sep-30 02:26 284 2 13.9
2016-Sep-30 02:21 282 2 13.9
2016-Sep-30 02:16 266 2 13.9
2016-Sep-30 02:11 267 1 13.9
2016-Sep-30 01:51 297 13.9
2016-Sep-30 01:46 217 13.9
2016-Sep-30 01:26 267 14.4
2016-Sep-30 01:11 267 0 14.4
2016-Sep-30 01:01 244 15.0
2016-Sep-30 00:56 263 1 15.0
2016-Sep-30 00:41 288 1 15.0
2016-Sep-30 00:36 240 0 15.0
2016-Sep-30 00:31 250 0 15.0
2016-Sep-30 00:21 281 2 15.0
2016-Sep-30 00:16 257 2 15.0
2016-Sep-29 23:51 257 0 15.0
2016-Sep-29 23:41 202 0 15.0
2016-Sep-29 23:36 215 0 15.0
2016-Sep-29 23:31 214 0 15.0
2016-Sep-29 23:26 215 15.0
2016-Sep-29 23:16 196 0 15.0
2016-Sep-29 23:01 163 15.0
2016-Sep-29 22:56 233 15.0
2016-Sep-29 22:41 296 15.0
2016-Sep-29 22:36 296 15.0
2016-Sep-29 22:31 296 15.0
2016-Sep-29 22:26 295 15.0
2016-Sep-29 22:21 296 15.0
2016-Sep-29 22:11 295 15.0
2016-Sep-29 22:06 296 14.4
2016-Sep-29 21:51 293 14.4
2016-Sep-29 21:46 293 14.4
2016-Sep-29 21:41 293 14.4
2016-Sep-29 21:36 293 14.4
2016-Sep-29 21:21 292 15.0
2016-Sep-29 21:11 292 15.0
2016-Sep-29 21:06 333 15.0
2016-Sep-29 20:56 335 15.0
2016-Sep-29 20:51 335 15.0
2016-Sep-29 20:46 335 15.0
2016-Sep-29 20:41 334 15.0
2016-Sep-29 20:36 334 15.0
2016-Sep-29 20:16 335 15.6
2016-Sep-29 20:06 291 15.6
2016-Sep-29 20:01 291 15.6
2016-Sep-29 19:56 291 15.6
2016-Sep-29 19:51 333 15.6
2016-Sep-29 19:46 334 15.6
2016-Sep-29 19:41 334 15.6
2016-Sep-29 19:36 333 15.6
2016-Sep-29 19:31 321 15.6
2016-Sep-29 19:26 321 15.6
2016-Sep-29 19:11 271 15.6
2016-Sep-29 19:06 271 16.1
2016-Sep-29 18:56 276 0 15.6
2016-Sep-29 18:46 039 16.1
2016-Sep-29 18:36 039 16.1
2016-Sep-29 18:31 039 16.1
2016-Sep-29 18:26 038 16.7
2016-Sep-29 18:21 038 16.7
2016-Sep-29 18:16 039 16.7
2016-Sep-29 17:46 153 17.2
2016-Sep-29 17:26 311 0 17.8
2016-Sep-29 17:16 313 0 17.8
2016-Sep-29 17:11 310 1 17.8
2016-Sep-29 17:06 306 3 17.8
2016-Sep-29 17:01 309 5 17.8
2016-Sep-29 16:56 298 6 18.3
2016-Sep-29 16:51 311 6 18.3
2016-Sep-29 16:46 288 6 18.3
2016-Sep-29 16:36 254 6 18.3
2016-Sep-29 16:31 276 5 18.3
2016-Sep-29 16:21 294 6 18.9
2016-Sep-29 16:11 276 6 18.9
2016-Sep-29 16:06 291 6 18.9
2016-Sep-29 16:01 283 6 18.9
2016-Sep-29 15:56 292 7 18.9
2016-Sep-29 15:47 286 9 19.4
2016-Sep-29 15:41 252 9 19.4
2016-Sep-29 15:31 279 9 20.0
2016-Sep-29 15:26 234 10 20.0
2016-Sep-29 15:21 277 10 20.0
2016-Sep-29 15:16 259 9 20.0
2016-Sep-29 15:06 279 7 20.6
2016-Sep-29 14:56 290 6 20.6
2016-Sep-29 14:51 252 7 20.6
2016-Sep-29 14:47 229 6 20.6
2016-Sep-29 14:41 230 6 20.6
2016-Sep-29 14:36 288 6 20.6
2016-Sep-29 14:26 242 4 20.6
2016-Sep-29 14:21 272 4 20.6
2016-Sep-29 14:16 260 4 21.1
2016-Sep-29 14:07 233 6 20.6
2016-Sep-29 14:01 192 6 21.1
2016-Sep-29 13:56 236 5 20.6
2016-Sep-29 13:41 209 6 20.6
2016-Sep-29 13:31 296 5 21.1
2016-Sep-29 13:26 243 5 21.1
2016-Sep-29 13:21 217 6 20.6
2016-Sep-29 13:11 250 4 21.1
2016-Sep-29 12:56 251 5 20.6
2016-Sep-29 12:51 249 5 20.6
2016-Sep-29 12:36 250 4 20.6
2016-Sep-29 12:31 253 4 20.6
2016-Sep-29 12:26 259 4 21.1
2016-Sep-29 12:21 273 4 20.6
2016-Sep-29 12:11 220 5 20.6
2016-Sep-29 11:57 257 6 20.6
2016-Sep-29 11:46 238 7 20.0
2016-Sep-29 11:31 260 6 20.0
2016-Sep-29 11:16 247 6 20.0
2016-Sep-29 11:11 265 6 20.0
2016-Sep-29 11:06 228 6 20.0
2016-Sep-29 11:01 217 5 20.0
2016-Sep-29 10:56 250 4 20.6
2016-Sep-29 10:51 264 5 20.0
2016-Sep-29 10:41 200 5 20.0
2016-Sep-29 10:36 209 3 20.0
2016-Sep-29 10:11 183 5 19.4
2016-Sep-29 10:01 225 2 20.0
2016-Sep-29 09:56 203 1 20.0
2016-Sep-29 09:51 190 1 20.0
2016-Sep-29 09:46 215 1 19.4
2016-Sep-29 09:41 127 1 19.4
2016-Sep-29 09:31 128 1 18.9
2016-Sep-29 09:27 167 1 18.9
2016-Sep-29 09:21 144 0 18.9
2016-Sep-29 09:17 140 0 18.9
2016-Sep-29 09:11 099 0 18.9
2016-Sep-29 09:06 130 0 18.3
2016-Sep-29 09:01 186 0 18.9
2016-Sep-29 08:57 119 0 18.9
2016-Sep-29 08:41 206 19.4
2016-Sep-29 08:31 197 0 18.9
2016-Sep-29 08:26 196 0 18.3
2016-Sep-29 08:22 148 0 18.9
2016-Sep-29 08:06 130 18.9
2016-Sep-29 07:57 148 18.3
2016-Sep-29 07:51 132 18.3
2016-Sep-29 07:46 134 17.8
2016-Sep-29 07:41 152 17.8
2016-Sep-29 07:27 144 0 17.8
2016-Sep-29 07:21 121 17.8
2016-Sep-29 07:16 153 17.2
2016-Sep-29 07:11 130 17.2
2016-Sep-29 07:06 115 17.2
2016-Sep-29 07:01 131 17.8
2016-Sep-29 06:56 127 17.2
2016-Sep-29 06:51 106 17.2
2016-Sep-29 06:46 126 16.7
2016-Sep-29 06:36 123 17.2
2016-Sep-29 06:31 076 16.7
2016-Sep-29 06:26 053 16.7
2016-Sep-29 06:21 052 16.7
2016-Sep-29 06:11 051 16.7
2016-Sep-29 06:06 051 16.7
2016-Sep-29 06:01 018 16.1
2016-Sep-29 05:56 018 15.6
2016-Sep-29 05:51 018 0 15.6
2016-Sep-29 05:41 360 1 15.0
2016-Sep-29 05:36 360 2 15.0
2016-Sep-29 05:21 336 2 14.4
2016-Sep-29 05:16 005 1 14.4
2016-Sep-29 05:11 360 1 15.0
2016-Sep-29 05:06 012 1 15.0
2016-Sep-29 05:01 017 1 15.0
2016-Sep-29 04:46 005 0 14.4
2016-Sep-29 04:41 360 0 14.4
2016-Sep-29 04:36 360 1 14.4
2016-Sep-29 04:31 360 1 15.0
2016-Sep-29 04:26 009 0 15.0
2016-Sep-29 04:21 015 0 14.4
2016-Sep-29 04:11 355 0 14.4
2016-Sep-29 04:06 355 1 14.4
2016-Sep-29 04:01 011 1 14.4
2016-Sep-29 03:56 355 0 14.4
2016-Sep-29 03:51 360 0 14.4
2016-Sep-29 03:46 005 0 15.0
2016-Sep-29 03:41 360 0 15.0
2016-Sep-29 03:31 355 0 15.0
2016-Sep-29 03:26 355 0 15.0
2016-Sep-29 03:16 360 0 15.6
2016-Sep-29 03:11 360 15.6
2016-Sep-29 03:06 360 0 15.0
2016-Sep-29 03:01 360 15.6
2016-Sep-29 02:56 360 0 15.0
2016-Sep-29 02:51 360 0 15.0
2016-Sep-29 02:46 349 0 15.0
2016-Sep-29 02:41 346 0 15.0
2016-Sep-29 02:36 346 0 15.0
2016-Sep-29 02:31 360 0 15.0
2016-Sep-29 02:26 355 15.6
2016-Sep-29 02:21 355 15.6
2016-Sep-29 02:11 355 15.6
2016-Sep-29 02:06 355 15.6
2016-Sep-29 02:01 355 15.0
2016-Sep-29 01:56 355 0 15.0
2016-Sep-29 01:51 355 0 15.0
2016-Sep-29 01:46 355 15.0
2016-Sep-29 01:41 355 15.6
2016-Sep-29 01:36 355 15.6
2016-Sep-29 01:31 355 15.6
2016-Sep-29 01:26 351 15.6
2016-Sep-29 01:21 350 15.6
2016-Sep-29 01:16 350 15.6
2016-Sep-29 01:11 350 16.1
2016-Sep-29 01:06 349 16.1
2016-Sep-29 01:01 350 16.1
2016-Sep-29 00:57 350 16.1
2016-Sep-29 00:51 350 16.1
2016-Sep-29 00:41 349 16.1
2016-Sep-29 00:36 350 16.1
2016-Sep-29 00:31 349 16.1
2016-Sep-29 00:26 349 16.1
2016-Sep-29 00:21 349 16.1
2016-Sep-29 00:16 350 16.1
2016-Sep-29 00:11 349 16.1
2016-Sep-29 00:01 350 16.1
2016-Sep-28 23:56 350 16.1
2016-Sep-28 23:51 350 16.1
2016-Sep-28 23:46 350 16.1
2016-Sep-28 23:41 350 16.7
2016-Sep-28 23:36 350 16.7
2016-Sep-28 23:31 349 16.7
2016-Sep-28 23:26 349 16.7
2016-Sep-28 23:16 349 17.2
2016-Sep-28 23:11 350 17.2
2016-Sep-28 23:06 350 17.2
2016-Sep-28 22:56 349 17.2
2016-Sep-28 22:51 350 17.2
2016-Sep-28 22:46 350 0 17.2
2016-Sep-28 22:41 349 0 17.2
2016-Sep-28 22:36 355 0 17.2
2016-Sep-28 22:31 355 0 17.2
2016-Sep-28 22:26 355 0 17.2
2016-Sep-28 22:21 355 0 17.2
2016-Sep-28 22:16 355 0 17.2
2016-Sep-28 22:11 355 17.2
2016-Sep-28 22:06 355 17.2
2016-Sep-28 22:01 355 0 17.2
2016-Sep-28 21:51 355 0 17.2
2016-Sep-28 21:46 355 0 17.2
2016-Sep-28 21:41 355 0 16.7
2016-Sep-28 21:36 009 16.7
2016-Sep-28 21:31 355 16.7
2016-Sep-28 21:26 355 16.7
2016-Sep-28 21:21 355 17.2
2016-Sep-28 21:16 355 17.2
2016-Sep-28 21:11 355 17.2
2016-Sep-28 21:06 355 17.2
2016-Sep-28 21:01 355 0 17.8
2016-Sep-28 20:56 351 0 17.8
2016-Sep-28 20:51 350 17.8
2016-Sep-28 20:36 351 1 17.8
2016-Sep-28 20:26 355 0 18.3
2016-Sep-28 20:21 355 0 17.8
2016-Sep-28 20:16 355 1 17.8
2016-Sep-28 20:11 355 1 17.2
2016-Sep-28 20:06 360 1 17.2
2016-Sep-28 20:01 349 1 17.2